createdAt,value
2022-09-28T00:01:58.709Z,97409.13
2022-09-28T00:04:26.217Z,97401.94
2022-09-28T00:06:53.316Z,97408.28
2022-09-28T00:09:20.305Z,97397.84
2022-09-28T00:11:47.620Z,97401.94
2022-09-28T00:14:15.487Z,97390.31
2022-09-28T00:16:44.121Z,97386.81
2022-09-28T00:19:12.863Z,97383.91
2022-09-28T00:21:41.187Z,97390.47
2022-09-28T00:24:15.681Z,97397.62
2022-09-28T00:26:44.477Z,97393.56
2022-09-28T00:29:19.630Z,97400.06
2022-09-28T00:31:47.817Z,97385.69
2022-09-28T00:34:16.133Z,97392.47
2022-09-28T00:36:45.593Z,97396.88
2022-09-28T00:39:14.624Z,97403.75
2022-09-28T00:41:42.663Z,97398.56
2022-09-28T00:44:38.207Z,97399.25
2022-09-28T00:47:27.221Z,97407.41
2022-09-28T00:50:05.988Z,97399.28
2022-09-28T00:52:41.125Z,97385.25
2022-09-28T00:55:12.415Z,97397.34
2022-09-28T00:57:41.417Z,97398.00
2022-09-28T01:00:09.109Z,97406.81
2022-09-28T01:02:36.730Z,97398.16
2022-09-28T01:05:05.755Z,97399.12
2022-09-28T01:07:32.943Z,97405.81
2022-09-28T01:10:00.165Z,97405.97
2022-09-28T01:12:27.707Z,97405.81
2022-09-28T01:14:57.166Z,97398.62
2022-09-28T01:17:24.592Z,97407.09
2022-09-28T01:20:16.386Z,97411.50
2022-09-28T01:22:55.567Z,97421.25
2022-09-28T01:25:54.982Z,97415.88
2022-09-28T01:28:28.484Z,97411.81
2022-09-28T01:31:12.715Z,97427.63
2022-09-28T01:33:55.596Z,97408.19
2022-09-28T01:36:27.061Z,97413.28
2022-09-28T01:39:10.040Z,97420.78
2022-09-28T01:41:40.256Z,97427.03
2022-09-28T01:44:11.988Z,97415.94
2022-09-28T01:46:46.754Z,97432.22
2022-09-28T01:49:21.342Z,97427.63
2022-09-28T01:52:09.842Z,97426.00
2022-09-28T01:54:42.262Z,97429.41
2022-09-28T01:57:32.418Z,97430.44
2022-09-28T02:00:08.335Z,97430.75
2022-09-28T02:02:56.280Z,97430.59
2022-09-28T02:05:30.054Z,97438.91
2022-09-28T02:08:07.312Z,97431.38
2022-09-28T02:10:52.572Z,97429.78
2022-09-28T02:13:43.900Z,97428.94
2022-09-28T02:16:26.811Z,97437.44
2022-09-28T02:18:53.822Z,97423.25
2022-09-28T02:21:23.473Z,97420.62
2022-09-28T02:24:12.048Z,97421.97
2022-09-28T02:26:43.342Z,97423.59
2022-09-28T02:29:10.630Z,97417.72
2022-09-28T02:31:38.030Z,97424.41
2022-09-28T02:34:05.244Z,97420.16
2022-09-28T02:36:33.395Z,97424.72
2022-09-28T02:39:02.343Z,97424.25
2022-09-28T02:41:35.601Z,97424.56
2022-09-28T02:44:14.931Z,97431.87
2022-09-28T02:46:58.772Z,97430.75
2022-09-28T02:49:35.230Z,97431.06
2022-09-28T02:52:20.969Z,97440.84
2022-09-28T02:55:10.230Z,97453.03
2022-09-28T02:57:52.368Z,97451.38
2022-09-28T03:00:22.705Z,97451.25
2022-09-28T03:03:08.434Z,97459.34
2022-09-28T03:06:18.398Z,97467.03
2022-09-28T03:08:57.923Z,97472.25
2022-09-28T03:11:40.998Z,97479.13
2022-09-28T03:14:08.325Z,97475.97
2022-09-28T03:16:36.455Z,97479.72
2022-09-28T03:19:03.489Z,97488.81
2022-09-28T03:21:30.570Z,97484.41
2022-09-28T03:23:58.048Z,97485.25
2022-09-28T03:26:25.058Z,97488.53
2022-09-28T03:28:52.076Z,97481.66
2022-09-28T03:31:19.980Z,97484.94
2022-09-28T03:33:46.954Z,97489.94
2022-09-28T03:36:15.204Z,97489.12
2022-09-28T03:38:42.653Z,97485.87
2022-09-28T03:41:10.617Z,97497.59
2022-09-28T03:43:37.962Z,97495.13
2022-09-28T03:46:05.607Z,97494.31
2022-09-28T03:48:35.508Z,97492.19
2022-09-28T03:51:05.423Z,97493.63
2022-09-28T03:53:33.920Z,97488.63
2022-09-28T03:56:10.197Z,97485.50
2022-09-28T03:58:37.618Z,97488.41
2022-09-28T04:01:07.587Z,97477.19
2022-09-28T04:03:35.696Z,97483.34
2022-09-28T04:06:02.807Z,97481.06
2022-09-28T04:08:29.841Z,97474.34
2022-09-28T04:10:58.081Z,97476.59
2022-09-28T04:13:26.026Z,97464.19
2022-09-28T04:15:54.565Z,97462.53
2022-09-28T04:18:22.139Z,97470.97
2022-09-28T04:21:07.431Z,97470.94
2022-09-28T04:23:36.170Z,97460.81
2022-09-28T04:26:04.998Z,97450.28
2022-09-28T04:28:50.741Z,97455.97
2022-09-28T04:31:21.037Z,97454.25
2022-09-28T04:33:48.242Z,97456.34
2022-09-28T04:36:15.258Z,97459.66
2022-09-28T04:38:52.920Z,97456.84
2022-09-28T04:41:22.514Z,97458.97
2022-09-28T04:43:50.613Z,97465.03
2022-09-28T04:46:18.281Z,97466.03
2022-09-28T04:48:46.425Z,97463.25
2022-09-28T04:51:14.182Z,97463.09
2022-09-28T04:53:41.175Z,97461.31
2022-09-28T04:56:11.239Z,97462.94
2022-09-28T04:58:39.647Z,97463.25
2022-09-28T05:01:09.494Z,97465.03
2022-09-28T05:03:48.250Z,97471.22
2022-09-28T05:06:15.990Z,97470.37
2022-09-28T05:08:43.303Z,97475.75
2022-09-28T05:11:11.926Z,97470.50
2022-09-28T05:13:45.187Z,97472.16
2022-09-28T05:16:15.765Z,97485.03
2022-09-28T05:18:44.144Z,97479.81
2022-09-28T05:21:13.081Z,97484.19
2022-09-28T05:23:40.971Z,97481.44
2022-09-28T05:26:08.345Z,97483.56
2022-09-28T05:28:35.620Z,97485.56
2022-09-28T05:31:08.331Z,97483.25
2022-09-28T05:33:37.156Z,97486.50
2022-09-28T05:36:04.326Z,97478.28
2022-09-28T05:38:31.618Z,97478.53
2022-09-28T05:41:01.204Z,97481.22
2022-09-28T05:43:32.263Z,97487.47
2022-09-28T05:46:00.431Z,97486.88
2022-09-28T05:48:28.390Z,97483.94
2022-09-28T05:50:55.591Z,97482.69
2022-09-28T05:53:22.950Z,97485.00
2022-09-28T05:55:50.238Z,97490.06
2022-09-28T05:58:17.382Z,97488.59
2022-09-28T06:00:44.678Z,97486.81
2022-09-28T06:03:14.304Z,97493.66
2022-09-28T06:05:41.572Z,97493.19
2022-09-28T06:08:10.643Z,97491.88
2022-09-28T06:10:38.917Z,97492.19
2022-09-28T06:13:06.841Z,97490.59
2022-09-28T06:15:35.487Z,97483.88
2022-09-28T06:18:09.587Z,97483.88
2022-09-28T06:20:41.233Z,97488.94
2022-09-28T06:23:13.265Z,97484.19
2022-09-28T06:25:40.484Z,97496.62
2022-09-28T06:28:10.992Z,97497.09
2022-09-28T06:30:39.823Z,97504.47
2022-09-28T06:33:10.285Z,97503.16
2022-09-28T06:35:37.360Z,97499.06
2022-09-28T06:38:04.911Z,97509.37
2022-09-28T06:40:33.427Z,97497.44
2022-09-28T06:43:10.537Z,97497.56
2022-09-28T06:45:42.955Z,97500.19
2022-09-28T06:48:10.946Z,97503.97
2022-09-28T06:50:40.542Z,97498.88
2022-09-28T06:53:11.671Z,97506.22
2022-09-28T06:55:46.010Z,97503.72
2022-09-28T06:58:19.586Z,97508.09
2022-09-28T07:00:48.962Z,97506.09
2022-09-28T07:03:21.660Z,97509.03
2022-09-28T07:05:51.317Z,97508.66
2022-09-28T07:08:19.692Z,97510.75
2022-09-28T07:10:49.243Z,97514.75
2022-09-28T07:13:44.940Z,97513.31
2022-09-28T07:16:04.789Z,97510.25
2022-09-28T07:18:31.970Z,97506.16
2022-09-28T07:20:59.708Z,97498.06
2022-09-28T07:23:28.548Z,97499.22
2022-09-28T07:25:58.396Z,97511.03
2022-09-28T07:28:26.387Z,97515.16
2022-09-28T07:30:57.444Z,97499.56
2022-09-28T07:33:32.841Z,97495.78
2022-09-28T07:36:06.552Z,97501.41
2022-09-28T07:38:34.456Z,97498.25
2022-09-28T07:41:14.792Z,97497.06
2022-09-28T07:43:42.424Z,97501.31
2022-09-28T07:46:12.247Z,97509.44
2022-09-28T07:48:41.860Z,97514.69
2022-09-28T07:51:10.066Z,97518.16
2022-09-28T07:53:38.466Z,97515.84
2022-09-28T07:56:09.461Z,97521.94
2022-09-28T07:58:38.451Z,97515.84
2022-09-28T08:01:08.728Z,97517.03
2022-09-28T08:03:36.843Z,97519.19
2022-09-28T08:06:07.269Z,97522.91
2022-09-28T08:08:35.693Z,97511.66
2022-09-28T08:11:03.272Z,97508.87
2022-09-28T08:13:31.144Z,97504.94
2022-09-28T08:16:01.755Z,97488.97
2022-09-28T08:18:30.155Z,97480.28
2022-09-28T08:21:17.119Z,97477.44
2022-09-28T08:23:44.508Z,97468.97
2022-09-28T08:26:15.334Z,97481.56
2022-09-28T08:28:44.984Z,97478.75
2022-09-28T08:31:18.726Z,97478.87
2022-09-28T08:33:50.052Z,97492.09
2022-09-28T08:36:25.391Z,97501.28
2022-09-28T08:38:53.424Z,97507.00
2022-09-28T08:42:05.431Z,97500.06
2022-09-28T08:44:40.822Z,97497.03
2022-09-28T08:47:41.014Z,97512.97
2022-09-28T08:50:14.379Z,97514.44
2022-09-28T08:52:43.423Z,97506.94
2022-09-28T08:55:37.820Z,97499.03
2022-09-28T08:58:12.571Z,97495.28
2022-09-28T09:00:48.637Z,97501.87
2022-09-28T09:03:21.173Z,97487.97
2022-09-28T09:06:00.394Z,97489.16
2022-09-28T09:08:52.380Z,97487.38
2022-09-28T09:11:48.810Z,97498.75
2022-09-28T09:14:57.769Z,97484.31
2022-09-28T09:17:46.929Z,97483.50
2022-09-28T09:20:15.569Z,97481.25
2022-09-28T09:22:58.877Z,97481.09
2022-09-28T09:25:50.581Z,97478.72
2022-09-28T09:28:42.839Z,97474.44
2022-09-28T09:31:22.542Z,97483.16
2022-09-28T09:33:59.041Z,97488.66
2022-09-28T09:37:04.199Z,97481.47
2022-09-28T09:39:55.734Z,97479.06
2022-09-28T09:42:52.414Z,97472.63
2022-09-28T09:45:31.455Z,97476.63
2022-09-28T09:48:03.275Z,97478.22
2022-09-28T09:50:39.957Z,97479.91
2022-09-28T09:53:26.003Z,97480.28
2022-09-28T09:55:57.390Z,97479.91
2022-09-28T09:58:35.340Z,97481.09
2022-09-28T10:01:08.871Z,97478.72
2022-09-28T10:03:40.839Z,97484.38
2022-09-28T10:06:14.298Z,97486.78
2022-09-28T10:08:44.649Z,97485.34
2022-09-28T10:11:15.656Z,97493.13
2022-09-28T10:13:44.708Z,97479.94
2022-09-28T10:16:18.669Z,97482.75
2022-09-28T10:18:46.482Z,97490.69
2022-09-28T10:21:17.396Z,97493.72
2022-09-28T10:23:50.763Z,97496.88
2022-09-28T10:26:25.560Z,97496.88
2022-09-28T10:29:02.031Z,97494.84
2022-09-28T10:31:36.696Z,97493.37
2022-09-28T10:34:06.136Z,97492.09
2022-09-28T10:36:38.669Z,97492.16
2022-09-28T10:39:06.295Z,97490.00
2022-09-28T10:41:33.562Z,97484.91
2022-09-28T10:44:10.986Z,97484.88
2022-09-28T10:46:39.052Z,97483.63
2022-09-28T10:49:15.664Z,97485.87
2022-09-28T10:51:46.853Z,97486.31
2022-09-28T10:54:17.200Z,97485.09
2022-09-28T10:56:45.314Z,97472.50
2022-09-28T10:59:24.630Z,97477.13
2022-09-28T11:01:54.687Z,97473.94
2022-09-28T11:04:24.594Z,97471.00
2022-09-28T11:06:52.031Z,97466.97
2022-09-28T11:09:31.626Z,97461.09
2022-09-28T11:12:00.187Z,97467.59
2022-09-28T11:14:42.112Z,97448.31
2022-09-28T11:17:40.587Z,97452.12
2022-09-28T11:20:28.429Z,97448.91
2022-09-28T11:22:58.614Z,97453.63
2022-09-28T11:25:28.574Z,97433.91
2022-09-28T11:28:00.744Z,97431.47
2022-09-28T11:30:34.940Z,97438.88
2022-09-28T11:33:07.254Z,97437.84
2022-09-28T11:36:00.255Z,97445.38
2022-09-28T11:38:40.917Z,97445.38
2022-09-28T11:41:36.863Z,97433.94
2022-09-28T11:44:18.122Z,97441.06
2022-09-28T11:47:04.106Z,97436.22
2022-09-28T11:49:41.750Z,97444.41
2022-09-28T11:52:47.193Z,97433.88
2022-09-28T11:55:19.514Z,97426.31
2022-09-28T11:57:50.686Z,97428.88
2022-09-28T12:00:22.470Z,97417.13
2022-09-28T12:03:05.782Z,97420.03
2022-09-28T12:06:05.318Z,97415.59
2022-09-28T12:08:37.465Z,97411.69
2022-09-28T12:11:22.053Z,97403.16
2022-09-28T12:13:54.232Z,97411.75
2022-09-28T12:16:53.557Z,97399.75
2022-09-28T12:19:19.745Z,97396.84
2022-09-28T12:21:52.955Z,97399.12
2022-09-28T12:24:25.113Z,97404.88
2022-09-28T12:26:59.659Z,97395.34
2022-09-28T12:29:31.928Z,97386.63
2022-09-28T12:32:31.470Z,97385.78
2022-09-28T12:34:58.942Z,97383.81
2022-09-28T12:37:25.917Z,97380.31
2022-09-28T12:40:03.488Z,97379.66
2022-09-28T12:42:36.759Z,97379.09
2022-09-28T12:45:12.655Z,97382.16
2022-09-28T12:48:03.990Z,97380.75
2022-09-28T12:50:52.588Z,97375.25
2022-09-28T12:53:41.665Z,97363.16
2022-09-28T12:56:25.234Z,97364.03
2022-09-28T12:59:01.087Z,97373.38
2022-09-28T13:01:43.754Z,97366.69
2022-09-28T13:04:44.889Z,97372.50
2022-09-28T13:07:37.904Z,97366.41
2022-09-28T13:10:23.364Z,97360.16
2022-09-28T13:13:16.666Z,97352.41
2022-09-28T13:15:47.951Z,97356.59
2022-09-28T13:18:38.771Z,97357.00
2022-09-28T13:21:08.808Z,97358.56
2022-09-28T13:23:39.747Z,97374.78
2022-09-28T13:26:24.283Z,97377.00
2022-09-28T13:28:54.796Z,97368.34
2022-09-28T13:31:31.730Z,97377.09
2022-09-28T13:34:01.997Z,97370.09
2022-09-28T13:36:29.197Z,97350.69
2022-09-28T13:38:59.400Z,97354.53
2022-09-28T13:41:29.769Z,97360.97
2022-09-28T13:44:10.869Z,97363.56
2022-09-28T13:47:05.271Z,97364.25
2022-09-28T13:49:41.608Z,97363.25
2022-09-28T13:52:45.070Z,97367.75
2022-09-28T13:55:23.265Z,97364.94
2022-09-28T13:57:55.922Z,97362.66
2022-09-28T14:00:30.781Z,97370.59
2022-09-28T14:03:28.138Z,97365.03
2022-09-28T14:06:27.128Z,97374.00
2022-09-28T14:09:12.729Z,97363.87
2022-09-28T14:11:42.442Z,97365.59
2022-09-28T14:14:13.940Z,97364.78
2022-09-28T14:16:42.002Z,97367.31
2022-09-28T14:19:16.921Z,97355.87
2022-09-28T14:21:58.170Z,97365.19
2022-09-28T14:24:40.746Z,97359.91
2022-09-28T14:27:26.579Z,97361.50
2022-09-28T14:30:13.850Z,97356.22
2022-09-28T14:33:02.816Z,97346.84
2022-09-28T14:35:33.078Z,97339.00
2022-09-28T14:38:36.896Z,97338.09
2022-09-28T14:41:10.102Z,97348.69
2022-09-28T14:43:38.209Z,97347.84
2022-09-28T14:46:11.381Z,97344.84
2022-09-28T14:48:48.077Z,97350.09
2022-09-28T14:51:27.535Z,97347.06
2022-09-28T14:53:56.755Z,97346.66
2022-09-28T14:56:24.137Z,97341.37
2022-09-28T14:58:54.498Z,97342.59
2022-09-28T15:01:24.630Z,97338.53
2022-09-28T15:03:55.168Z,97326.37
2022-09-28T15:06:23.637Z,97327.19
2022-09-28T15:08:50.683Z,97325.97
2022-09-28T15:11:23.576Z,97325.13
2022-09-28T15:13:53.943Z,97326.78
2022-09-28T15:16:23.987Z,97326.37
2022-09-28T15:18:51.037Z,97317.84
2022-09-28T15:21:18.587Z,97308.91
2022-09-28T15:23:46.893Z,97309.53
2022-09-28T15:26:31.851Z,97310.91
2022-09-28T15:29:02.981Z,97314.78
2022-09-28T15:31:34.402Z,97311.72
2022-09-28T15:34:20.211Z,97308.91
2022-09-28T15:36:47.532Z,97317.00
2022-09-28T15:39:31.022Z,97317.03
2022-09-28T15:41:59.493Z,97330.22
2022-09-28T15:44:35.179Z,97324.94
2022-09-28T15:47:24.921Z,97321.09
2022-09-28T15:50:00.257Z,97319.66
2022-09-28T15:52:42.607Z,97315.38
2022-09-28T15:55:20.790Z,97321.22
2022-09-28T15:57:47.975Z,97319.13
2022-09-28T16:00:21.399Z,97316.06
2022-09-28T16:03:02.011Z,97327.16
2022-09-28T16:05:35.853Z,97320.44
2022-09-28T16:08:04.965Z,97321.22
2022-09-28T16:10:34.353Z,97308.41
2022-09-28T16:13:27.612Z,97312.78
2022-09-28T16:15:57.998Z,97309.69
2022-09-28T16:18:26.912Z,97312.31
2022-09-28T16:21:18.843Z,97306.84
2022-09-28T16:23:51.647Z,97309.69
2022-09-28T16:26:29.811Z,97308.00
2022-09-28T16:28:56.791Z,97310.37
2022-09-28T16:31:27.948Z,97313.66
2022-09-28T16:33:58.972Z,97311.59
2022-09-28T16:36:29.847Z,97316.47
2022-09-28T16:38:57.072Z,97318.91
2022-09-28T16:41:27.542Z,97323.78
2022-09-28T16:43:59.301Z,97324.97
2022-09-28T16:46:37.132Z,97327.09
2022-09-28T16:49:06.813Z,97335.22
2022-09-28T16:51:33.877Z,97329.72
2022-09-28T16:54:32.186Z,97328.94
2022-09-28T16:57:00.195Z,97330.16
2022-09-28T16:59:28.325Z,97332.19
2022-09-28T17:01:57.886Z,97330.16
2022-09-28T17:04:25.977Z,97327.91
2022-09-28T17:06:54.380Z,97327.91
2022-09-28T17:09:22.533Z,97324.47
2022-09-28T17:11:56.100Z,97326.03
2022-09-28T17:14:23.928Z,97328.84
2022-09-28T17:17:12.704Z,97330.16
2022-09-28T17:19:41.316Z,97324.66
2022-09-28T17:22:09.434Z,97328.38
2022-09-28T17:24:37.019Z,97327.91
2022-09-28T17:27:04.219Z,97325.84
2022-09-28T17:29:32.618Z,97332.25
2022-09-28T17:31:59.641Z,97337.34
2022-09-28T17:34:26.677Z,97334.00
2022-09-28T17:36:54.253Z,97339.25
2022-09-28T17:39:21.329Z,97328.84
2022-09-28T17:41:48.307Z,97334.69
2022-09-28T17:44:16.035Z,97338.22
2022-09-28T17:46:47.418Z,97324.56
2022-09-28T17:49:15.154Z,97330.12
2022-09-28T17:51:42.541Z,97327.31
2022-09-28T17:54:13.558Z,97331.69
2022-09-28T17:56:40.543Z,97330.34
2022-09-28T17:59:11.446Z,97343.47
2022-09-28T18:01:39.725Z,97339.50
2022-09-28T18:04:08.961Z,97345.91
2022-09-28T18:06:37.375Z,97347.03
2022-09-28T18:09:05.241Z,97351.00
2022-09-28T18:11:33.457Z,97348.66
2022-09-28T18:14:00.927Z,97351.84
2022-09-28T18:16:28.974Z,97350.25
2022-09-28T18:18:56.773Z,97348.84
2022-09-28T18:21:23.784Z,97348.56
2022-09-28T18:23:51.203Z,97358.78
2022-09-28T18:26:21.170Z,97356.34
2022-09-28T18:28:48.176Z,97359.41
2022-09-28T18:31:15.873Z,97364.03
2022-09-28T18:33:43.423Z,97367.41
2022-09-28T18:36:11.482Z,97363.69
2022-09-28T18:38:39.063Z,97360.88
2022-09-28T18:41:10.124Z,97362.59
2022-09-28T18:43:37.747Z,97362.13
2022-09-28T18:46:11.708Z,97369.38
2022-09-28T18:48:40.528Z,97364.13
2022-09-28T18:51:08.896Z,97362.91
2022-09-28T18:53:36.320Z,97371.63
2022-09-28T18:56:11.900Z,97367.28
2022-09-28T18:58:40.186Z,97376.41
2022-09-28T19:01:29.089Z,97371.44
2022-09-28T19:03:59.314Z,97364.53
2022-09-28T19:06:29.804Z,97364.19
2022-09-28T19:08:57.113Z,97368.09
2022-09-28T19:11:24.969Z,97362.22
2022-09-28T19:13:53.574Z,97367.91
2022-09-28T19:16:24.057Z,97368.84
2022-09-28T19:18:52.450Z,97371.75
2022-09-28T19:21:19.941Z,97373.47
2022-09-28T19:23:49.781Z,97367.28
2022-09-28T19:26:20.982Z,97370.09
2022-09-28T19:28:48.902Z,97365.72
2022-09-28T19:31:16.235Z,97367.75
2022-09-28T19:33:45.345Z,97365.22
2022-09-28T19:36:18.475Z,97361.84
2022-09-28T19:38:45.911Z,97370.63
2022-09-28T19:41:39.492Z,97363.28
2022-09-28T19:44:09.737Z,97358.69
2022-09-28T19:46:38.866Z,97366.03
2022-09-28T19:49:14.685Z,97358.00
2022-09-28T19:52:01.665Z,97358.78
2022-09-28T19:54:34.377Z,97360.28
2022-09-28T19:57:11.477Z,97358.22
2022-09-28T19:59:38.785Z,97358.00
2022-09-28T20:02:07.376Z,97356.06
2022-09-28T20:04:34.672Z,97357.84
2022-09-28T20:07:02.406Z,97352.59
2022-09-28T20:09:29.573Z,97351.00
2022-09-28T20:11:57.219Z,97354.06
2022-09-28T20:14:25.935Z,97349.28
2022-09-28T20:16:55.211Z,97349.97
2022-09-28T20:19:23.326Z,97347.69
2022-09-28T20:21:50.457Z,97349.72
2022-09-28T20:24:18.035Z,97340.13
2022-09-28T20:26:45.906Z,97346.03
2022-09-28T20:29:13.385Z,97343.66
2022-09-28T20:31:40.882Z,97337.81
2022-09-28T20:34:08.175Z,97339.81
2022-09-28T20:36:35.220Z,97328.22
2022-09-28T20:39:02.954Z,97324.75
2022-09-28T20:41:35.615Z,97327.91
2022-09-28T20:44:05.987Z,97317.72
2022-09-28T20:46:35.119Z,97314.44
2022-09-28T20:49:02.729Z,97320.97
2022-09-28T20:51:29.775Z,97309.91
2022-09-28T20:53:58.022Z,97317.06
2022-09-28T20:56:26.308Z,97322.69
2022-09-28T20:58:54.168Z,97325.19
2022-09-28T21:01:24.126Z,97321.47
2022-09-28T21:03:53.623Z,97310.34
2022-09-28T21:06:22.380Z,97320.84
2022-09-28T21:08:50.068Z,97314.69
2022-09-28T21:11:37.645Z,97307.09
2022-09-28T21:14:06.792Z,97304.50
2022-09-28T21:16:34.923Z,97303.50
2022-09-28T21:19:02.414Z,97301.06
2022-09-28T21:21:29.761Z,97309.56
2022-09-28T21:23:59.625Z,97306.47
2022-09-28T21:26:28.393Z,97303.31
2022-09-28T21:29:01.873Z,97308.75
2022-09-28T21:31:40.601Z,97307.94
2022-09-28T21:34:20.682Z,97311.34
2022-09-28T21:36:51.003Z,97312.00
2022-09-28T21:39:18.879Z,97309.00
2022-09-28T21:41:46.019Z,97311.16
2022-09-28T21:44:13.029Z,97305.88
2022-09-28T21:46:40.413Z,97299.50
2022-09-28T21:49:08.403Z,97301.50
2022-09-28T21:51:35.804Z,97303.94
2022-09-28T21:54:03.375Z,97302.75
2022-09-28T21:56:30.408Z,97304.94
2022-09-28T21:58:57.374Z,97307.53
2022-09-28T22:01:26.100Z,97308.72
2022-09-28T22:03:55.479Z,97305.91
2022-09-28T22:06:24.258Z,97306.56
2022-09-28T22:08:51.392Z,97303.69
2022-09-28T22:11:21.048Z,97298.94
2022-09-28T22:13:49.660Z,97302.56
2022-09-28T22:16:19.215Z,97298.50
2022-09-28T22:18:46.724Z,97299.78
2022-09-28T22:21:17.148Z,97304.13
2022-09-28T22:23:44.417Z,97288.37
2022-09-28T22:26:18.007Z,97288.13
2022-09-28T22:28:55.722Z,97291.25
2022-09-28T22:31:25.806Z,97294.06
2022-09-28T22:33:53.469Z,97282.88
2022-09-28T22:36:21.008Z,97288.91
2022-09-28T22:38:48.703Z,97293.09
2022-09-28T22:41:18.698Z,97295.81
2022-09-28T22:43:46.934Z,97289.56
2022-09-28T22:46:19.062Z,97293.69
2022-09-28T22:48:47.281Z,97298.16
2022-09-28T22:51:15.315Z,97302.47
2022-09-28T22:53:42.355Z,97301.94
2022-09-28T22:56:12.584Z,97297.25
2022-09-28T22:58:43.278Z,97303.47
2022-09-28T23:01:17.193Z,97300.78
2022-09-28T23:03:45.178Z,97299.22
2022-09-28T23:06:14.082Z,97294.78
2022-09-28T23:08:41.070Z,97288.91
2022-09-28T23:11:08.528Z,97287.00
2022-09-28T23:13:35.601Z,97286.56
2022-09-28T23:16:05.435Z,97292.72
2022-09-28T23:18:36.357Z,97281.38
2022-09-28T23:21:06.485Z,97290.09
2022-09-28T23:23:34.517Z,97282.94
2022-09-28T23:26:19.425Z,97276.50
2022-09-28T23:28:46.797Z,97282.22
2022-09-28T23:31:43.085Z,97287.91
2022-09-28T23:34:10.522Z,97294.44
2022-09-28T23:36:37.527Z,97297.31
2022-09-28T23:39:04.728Z,97300.41
2022-09-28T23:41:32.065Z,97307.25
2022-09-28T23:43:59.084Z,97309.00
2022-09-28T23:46:26.229Z,97305.09
2022-09-28T23:48:53.715Z,97307.72
2022-09-28T23:51:20.711Z,97304.28
2022-09-28T23:53:47.737Z,97301.69
2022-09-28T23:56:15.434Z,97298.41
2022-09-28T23:58:42.881Z,97300.28
